Terminal Aerodrome Forecast
Issued by NWS North Platte, NE

Home | Current Version | Previous Version | Text Only | Print | Product List | Glossary On
Versions: 1 2 3 4 5 6 7 8 9 10 11 12 13
005
FTUS43 KLBF 110521
TAFLBF
TAF
KLBF 110521Z 1106/1206 03010KT P6SM SCT250
     FM110730 02008KT P6SM OVC015
     FM110900 03005KT P6SM OVC008
      TEMPO 1110/1114 2SM BR OVC005
     FM111600 17005KT P6SM OVC012
     FM111800 24006KT P6SM SCT100
     FM112200 29009KT P6SM SCT100=

USA.gov is the U.S. government's official web portal to all federal, state and local government web resources and services.